sensor_id;sensor_type;location;lat;lon;timestamp;pressure;altitude;pressure_sealevel;temperature;humidity
59650;BME280;46162;57.568;25.814;2023-04-27T00:02:34;100140.13;;;4.87;100.00
59650;BME280;46162;57.568;25.814;2023-04-27T00:05:05;100140.97;;;4.88;100.00
59650;BME280;46162;57.568;25.814;2023-04-27T00:07:34;100146.72;;;4.83;100.00
59650;BME280;46162;57.568;25.814;2023-04-27T00:10:03;100145.88;;;4.83;100.00
59650;BME280;46162;57.568;25.814;2023-04-27T00:12:32;100145.97;;;4.81;100.00
59650;BME280;46162;57.568;25.814;2023-04-27T00:15:01;100141.38;;;4.83;100.00
59650;BME280;46162;57.568;25.814;2023-04-27T00:17:30;100135.41;;;4.80;100.00
59650;BME280;46162;57.568;25.814;2023-04-27T00:19:58;100134.81;;;4.76;100.00
59650;BME280;46162;57.568;25.814;2023-04-27T00:22:29;100139.69;;;4.82;100.00
59650;BME280;46162;57.568;25.814;2023-04-27T00:24:57;100134.19;;;4.84;100.00
59650;BME280;46162;57.568;25.814;2023-04-27T00:27:26;100134.25;;;4.93;100.00
59650;BME280;46162;57.568;25.814;2023-04-27T00:29:54;100135.09;;;4.94;100.00
59650;BME280;46162;57.568;25.814;2023-04-27T00:32:23;100138.38;;;4.98;100.00
59650;BME280;46162;57.568;25.814;2023-04-27T00:34:52;100131.84;;;4.90;100.00
59650;BME280;46162;57.568;25.814;2023-04-27T00:37:20;100123.06;;;5.00;100.00
59650;BME280;46162;57.568;25.814;2023-04-27T00:39:50;100111.16;;;5.13;100.00
59650;BME280;46162;57.568;25.814;2023-04-27T00:42:19;100103.72;;;5.17;100.00
59650;BME280;46162;57.568;25.814;2023-04-27T00:44:50;100115.41;;;5.16;100.00
59650;BME280;46162;57.568;25.814;2023-04-27T00:47:18;100114.75;;;5.03;100.00
59650;BME280;46162;57.568;25.814;2023-04-27T00:49:48;100127.41;;;5.01;100.00
59650;BME280;46162;57.568;25.814;2023-04-27T00:52:17;100132.19;;;4.97;100.00
59650;BME280;46162;57.568;25.814;2023-04-27T00:54:51;100135.81;;;4.96;100.00
59650;BME280;46162;57.568;25.814;2023-04-27T00:57:20;100134.97;;;4.95;100.00
59650;BME280;46162;57.568;25.814;2023-04-27T00:59:49;100144.56;;;4.98;100.00
59650;BME280;46162;57.568;25.814;2023-04-27T01:02:18;100142.16;;;4.95;100.00
59650;BME280;46162;57.568;25.814;2023-04-27T01:04:47;100145.69;;;4.95;100.00
59650;BME280;46162;57.568;25.814;2023-04-27T01:07:18;100146.19;;;4.89;100.00
59650;BME280;46162;57.568;25.814;2023-04-27T01:09:47;100144.16;;;4.82;100.00
59650;BME280;46162;57.568;25.814;2023-04-27T01:12:17;100149.97;;;4.87;100.00
59650;BME280;46162;57.568;25.814;2023-04-27T01:14:47;100154.63;;;4.85;100.00
59650;BME280;46162;57.568;25.814;2023-04-27T01:17:15;100162.66;;;4.85;100.00
59650;BME280;46162;57.568;25.814;2023-04-27T01:19:44;100162.66;;;4.85;100.00
59650;BME280;46162;57.568;25.814;2023-04-27T01:22:12;100167.84;;;4.86;100.00
59650;BME280;46162;57.568;25.814;2023-04-27T01:24:43;100171.78;;;4.82;100.00
59650;BME280;46162;57.568;25.814;2023-04-27T01:27:11;100171.88;;;4.81;100.00
59650;BME280;46162;57.568;25.814;2023-04-27T01:29:42;100174.44;;;4.82;100.00
59650;BME280;46162;57.568;25.814;2023-04-27T01:32:11;100163.03;;;4.80;100.00
59650;BME280;46162;57.568;25.814;2023-04-27T01:34:39;100166.66;;;4.79;100.00
59650;BME280;46162;57.568;25.814;2023-04-27T01:37:08;100169.47;;;4.78;100.00
59650;BME280;46162;57.568;25.814;2023-04-27T01:39:36;100180.56;;;4.73;100.00
59650;BME280;46162;57.568;25.814;2023-04-27T01:42:08;100171.44;;;4.76;100.00
59650;BME280;46162;57.568;25.814;2023-04-27T01:44:38;100168.88;;;4.74;100.00
59650;BME280;46162;57.568;25.814;2023-04-27T01:47:08;100163.50;;;4.74;100.00
59650;BME280;46162;57.568;25.814;2023-04-27T01:49:38;100162.78;;;4.72;100.00
59650;BME280;46162;57.568;25.814;2023-04-27T01:52:06;100160.38;;;4.69;100.00
59650;BME280;46162;57.568;25.814;2023-04-27T01:54:35;100156.75;;;4.70;100.00
59650;BME280;46162;57.568;25.814;2023-04-27T01:57:05;100147.72;;;4.71;100.00
59650;BME280;46162;57.568;25.814;2023-04-27T01:59:35;100155.03;;;4.69;100.00
59650;BME280;46162;57.568;25.814;2023-04-27T02:02:03;100157.44;;;4.72;100.00
59650;BME280;46162;57.568;25.814;2023-04-27T02:04:32;100152.34;;;4.69;100.00
59650;BME280;46162;57.568;25.814;2023-04-27T02:07:02;100151.50;;;4.68;100.00
59650;BME280;46162;57.568;25.814;2023-04-27T02:09:31;100148.56;;;4.71;100.00
59650;BME280;46162;57.568;25.814;2023-04-27T02:12:01;100147.47;;;4.74;100.00
59650;BME280;46162;57.568;25.814;2023-04-27T02:14:29;100151.97;;;4.73;100.00
59650;BME280;46162;57.568;25.814;2023-04-27T02:16:59;100148.31;;;4.74;100.00
59650;BME280;46162;57.568;25.814;2023-04-27T02:19:28;100155.50;;;4.74;100.00
59650;BME280;46162;57.568;25.814;2023-04-27T02:21:56;100161.81;;;4.73;100.00
59650;BME280;46162;57.568;25.814;2023-04-27T02:24:26;100156.75;;;4.70;100.00
59650;BME280;46162;57.568;25.814;2023-04-27T02:26:54;100170.81;;;4.72;100.00
59650;BME280;46162;57.568;25.814;2023-04-27T02:29:23;100164.28;;;4.65;100.00
59650;BME280;46162;57.568;25.814;2023-04-27T02:31:52;100173.63;;;4.70;100.00
59650;BME280;46162;57.568;25.814;2023-04-27T02:34:22;100171.91;;;4.69;100.00
59650;BME280;46162;57.568;25.814;2023-04-27T02:36:51;100169.13;;;4.71;100.00
59650;BME280;46162;57.568;25.814;2023-04-27T02:39:20;100183.22;;;4.73;100.00
59650;BME280;46162;57.568;25.814;2023-04-27T02:41:48;100177.03;;;4.72;100.00
59650;BME280;46162;57.568;25.814;2023-04-27T02:44:17;100181.50;;;4.72;100.00
59650;BME280;46162;57.568;25.814;2023-04-27T02:46:45;100184.91;;;4.74;100.00
59650;BME280;46162;57.568;25.814;2023-04-27T02:49:14;100192.34;;;4.70;100.00
59650;BME280;46162;57.568;25.814;2023-04-27T02:51:44;100196.72;;;4.71;100.00
59650;BME280;46162;57.568;25.814;2023-04-27T02:54:13;100181.78;;;4.69;100.00
59650;BME280;46162;57.568;25.814;2023-04-27T02:56:42;100181.03;;;4.67;100.00
59650;BME280;46162;57.568;25.814;2023-04-27T02:59:10;100192.47;;;4.69;100.00
59650;BME280;46162;57.568;25.814;2023-04-27T03:01:39;100186.16;;;4.70;100.00
59650;BME280;46162;57.568;25.814;2023-04-27T03:04:08;100195.03;;;4.70;100.00
59650;BME280;46162;57.568;25.814;2023-04-27T03:06:40;100193.91;;;4.73;100.00
59650;BME280;46162;57.568;25.814;2023-04-27T03:09:10;100200.38;;;4.70;100.00
59650;BME280;46162;57.568;25.814;2023-04-27T03:11:39;100196.84;;;4.70;100.00
59650;BME280;46162;57.568;25.814;2023-04-27T03:14:08;100198.53;;;4.71;100.00
59650;BME280;46162;57.568;25.814;2023-04-27T03:16:38;100199.53;;;4.70;100.00
59650;BME280;46162;57.568;25.814;2023-04-27T03:19:07;100198.66;;;4.69;100.00
59650;BME280;46162;57.568;25.814;2023-04-27T03:21:36;100204.38;;;4.65;100.00
59650;BME280;46162;57.568;25.814;2023-04-27T03:24:05;100204.25;;;4.66;100.00
59650;BME280;46162;57.568;25.814;2023-04-27T03:26:35;100200.50;;;4.69;100.00
59650;BME280;46162;57.568;25.814;2023-04-27T03:29:03;100201.59;;;4.66;100.00
59650;BME280;46162;57.568;25.814;2023-04-27T03:31:32;100204.88;;;4.70;100.00
59650;BME280;46162;57.568;25.814;2023-04-27T03:34:01;100219.34;;;4.67;100.00
59650;BME280;46162;57.568;25.814;2023-04-27T03:36:30;100218.25;;;4.70;100.00
59650;BME280;46162;57.568;25.814;2023-04-27T03:38:59;100221.16;;;4.67;100.00
59650;BME280;46162;57.568;25.814;2023-04-27T03:41:28;100220.94;;;4.70;100.00
59650;BME280;46162;57.568;25.814;2023-04-27T03:43:58;100221.88;;;4.69;100.00
59650;BME280;46162;57.568;25.814;2023-04-27T03:46:27;100226.38;;;4.68;100.00
59650;BME280;46162;57.568;25.814;2023-04-27T03:48:56;100227.97;;;4.71;100.00
59650;BME280;46162;57.568;25.814;2023-04-27T03:51:25;100229.16;;;4.67;100.00
59650;BME280;46162;57.568;25.814;2023-04-27T03:53:54;100228.84;;;4.60;100.00
59650;BME280;46162;57.568;25.814;2023-04-27T03:56:23;100232.63;;;4.58;100.00
59650;BME280;46162;57.568;25.814;2023-04-27T03:58:51;100225.81;;;4.53;100.00
59650;BME280;46162;57.568;25.814;2023-04-27T04:01:28;100223.88;;;4.56;100.00
59650;BME280;46162;57.568;25.814;2023-04-27T04:03:57;100228.13;;;4.58;100.00
59650;BME280;46162;57.568;25.814;2023-04-27T04:06:26;100225.28;;;4.60;100.00
59650;BME280;46162;57.568;25.814;2023-04-27T04:08:55;100237.56;;;4.62;100.00
59650;BME280;46162;57.568;25.814;2023-04-27T04:11:24;100238.06;;;4.67;100.00
59650;BME280;46162;57.568;25.814;2023-04-27T04:13:56;100240.84;;;4.66;100.00
59650;BME280;46162;57.568;25.814;2023-04-27T04:16:25;100233.56;;;4.68;100.00
59650;BME280;46162;57.568;25.814;2023-04-27T04:18:55;100240.47;;;4.70;100.00
59650;BME280;46162;57.568;25.814;2023-04-27T04:21:23;100238.13;;;4.77;100.00
59650;BME280;46162;57.568;25.814;2023-04-27T04:23:52;100246.16;;;4.77;100.00
59650;BME280;46162;57.568;25.814;2023-04-27T04:26:21;100246.03;;;4.79;100.00
59650;BME280;46162;57.568;25.814;2023-04-27T04:28:50;100247.41;;;4.73;100.00
59650;BME280;46162;57.568;25.814;2023-04-27T04:31:19;100249.56;;;4.79;100.00
59650;BME280;46162;57.568;25.814;2023-04-27T04:33:49;100252.25;;;4.79;100.00
59650;BME280;46162;57.568;25.814;2023-04-27T04:36:19;100252.25;;;4.79;100.00
59650;BME280;46162;57.568;25.814;2023-04-27T04:38:52;100261.97;;;4.80;100.00
59650;BME280;46162;57.568;25.814;2023-04-27T04:41:24;100265.25;;;4.84;100.00
59650;BME280;46162;57.568;25.814;2023-04-27T04:43:53;100267.81;;;4.85;100.00
59650;BME280;46162;57.568;25.814;2023-04-27T04:46:21;100268.19;;;4.81;100.00
59650;BME280;46162;57.568;25.814;2023-04-27T04:48:52;100275.34;;;4.80;100.00
59650;BME280;46162;57.568;25.814;2023-04-27T04:51:22;100277.78;;;4.83;100.00
59650;BME280;46162;57.568;25.814;2023-04-27T04:53:51;100275.81;;;4.85;100.00
59650;BME280;46162;57.568;25.814;2023-04-27T04:56:22;100275.34;;;4.80;100.00
59650;BME280;46162;57.568;25.814;2023-04-27T04:58:52;100272.78;;;4.79;100.00
59650;BME280;46162;57.568;25.814;2023-04-27T05:01:21;100283.38;;;4.80;100.00
59650;BME280;46162;57.568;25.814;2023-04-27T05:03:49;100285.44;;;4.77;100.00
59650;BME280;46162;57.568;25.814;2023-04-27T05:06:18;100301.84;;;4.72;100.00
59650;BME280;46162;57.568;25.814;2023-04-27T05:08:50;100293.13;;;4.70;100.00
59650;BME280;46162;57.568;25.814;2023-04-27T05:11:19;100286.91;;;4.69;100.00
59650;BME280;46162;57.568;25.814;2023-04-27T05:13:48;100296.50;;;4.72;100.00
59650;BME280;46162;57.568;25.814;2023-04-27T05:16:16;100295.53;;;4.73;100.00
59650;BME280;46162;57.568;25.814;2023-04-27T05:18:45;100293.59;;;4.75;100.00
59650;BME280;46162;57.568;25.814;2023-04-27T05:21:15;100299.91;;;4.74;100.00
59650;BME280;46162;57.568;25.814;2023-04-27T05:23:46;100296.38;;;4.73;100.00
59650;BME280;46162;57.568;25.814;2023-04-27T05:26:17;100303.06;;;4.79;100.00
59650;BME280;46162;57.568;25.814;2023-04-27T05:28:45;100294.06;;;4.80;100.00
59650;BME280;46162;57.568;25.814;2023-04-27T05:31:15;100300.75;;;4.86;100.00
59650;BME280;46162;57.568;25.814;2023-04-27T05:33:44;100310.13;;;4.69;100.00
59650;BME280;46162;57.568;25.814;2023-04-27T05:36:12;100310.00;;;4.70;100.00
59650;BME280;46162;57.568;25.814;2023-04-27T05:38:41;100305.72;;;4.79;100.00
59650;BME280;46162;57.568;25.814;2023-04-27T05:41:10;100311.34;;;4.76;100.00
59650;BME280;46162;57.568;25.814;2023-04-27T05:43:40;100312.06;;;4.78;100.00
59650;BME280;46162;57.568;25.814;2023-04-27T05:46:12;100314.47;;;4.81;100.00
59650;BME280;46162;57.568;25.814;2023-04-27T05:48:41;100317.38;;;4.89;100.00
59650;BME280;46162;57.568;25.814;2023-04-27T05:51:09;100307.66;;;5.00;100.00
59650;BME280;46162;57.568;25.814;2023-04-27T05:53:38;100311.19;;;5.00;100.00
59650;BME280;46162;57.568;25.814;2023-04-27T05:56:07;100316.84;;;5.07;100.00
59650;BME280;46162;57.568;25.814;2023-04-27T05:58:37;100315.63;;;5.11;100.00
59650;BME280;46162;57.568;25.814;2023-04-27T06:01:07;100320.03;;;5.12;100.00
59650;BME280;46162;57.568;25.814;2023-04-27T06:03:36;100320.03;;;5.12;100.00
59650;BME280;46162;57.568;25.814;2023-04-27T06:06:06;100317.69;;;5.18;100.00
59650;BME280;46162;57.568;25.814;2023-04-27T06:08:34;100310.38;;;5.21;100.00
59650;BME280;46162;57.568;25.814;2023-04-27T06:11:03;100316.84;;;5.18;100.00
59650;BME280;46162;57.568;25.814;2023-04-27T06:13:32;100315.34;;;5.25;100.00
59650;BME280;46162;57.568;25.814;2023-04-27T06:16:01;100308.59;;;5.42;100.00
59650;BME280;46162;57.568;25.814;2023-04-27T06:18:31;100320.63;;;5.48;100.00
59650;BME280;46162;57.568;25.814;2023-04-27T06:21:00;100322.47;;;5.47;100.00
59650;BME280;46162;57.568;25.814;2023-04-27T06:23:29;100328.22;;;5.31;100.00
59650;BME280;46162;57.568;25.814;2023-04-27T06:25:58;100322.63;;;5.34;100.00
59650;BME280;46162;57.568;25.814;2023-04-27T06:28:28;100325.06;;;5.37;100.00
59650;BME280;46162;57.568;25.814;2023-04-27T06:30:57;100326.88;;;5.37;100.00
59650;BME280;46162;57.568;25.814;2023-04-27T06:33:26;100327.72;;;5.37;100.00
59650;BME280;46162;57.568;25.814;2023-04-27T06:35:55;100328.41;;;5.51;100.00
59650;BME280;46162;57.568;25.814;2023-04-27T06:38:24;100336.44;;;5.51;100.00
59650;BME280;46162;57.568;25.814;2023-04-27T06:40:53;100332.91;;;5.50;100.00
59650;BME280;46162;57.568;25.814;2023-04-27T06:43:22;100333.25;;;5.57;100.00
59650;BME280;46162;57.568;25.814;2023-04-27T06:45:50;100333.97;;;5.59;100.00
59650;BME280;46162;57.568;25.814;2023-04-27T06:48:19;100337.06;;;5.75;100.00
59650;BME280;46162;57.568;25.814;2023-04-27T06:50:48;100326.78;;;5.80;100.00
59650;BME280;46162;57.568;25.814;2023-04-27T06:53:18;100331.25;;;5.91;100.00
59650;BME280;46162;57.568;25.814;2023-04-27T06:55:47;100342.19;;;5.99;100.00
59650;BME280;46162;57.568;25.814;2023-04-27T06:58:17;100343.00;;;6.11;100.00
59650;BME280;46162;57.568;25.814;2023-04-27T07:00:45;100347.75;;;6.08;100.00
59650;BME280;46162;57.568;25.814;2023-04-27T07:03:14;100347.53;;;6.20;100.00
59650;BME280;46162;57.568;25.814;2023-04-27T07:05:43;100349.66;;;6.17;100.00
59650;BME280;46162;57.568;25.814;2023-04-27T07:08:12;100356.00;;;6.16;100.00
59650;BME280;46162;57.568;25.814;2023-04-27T07:10:43;100353.94;;;6.08;100.00
59650;BME280;46162;57.568;25.814;2023-04-27T07:13:11;100353.44;;;6.14;100.00
59650;BME280;46162;57.568;25.814;2023-04-27T07:15:40;100360.03;;;6.31;100.00
59650;BME280;46162;57.568;25.814;2023-04-27T07:18:09;100364.19;;;6.45;100.00
59650;BME280;46162;57.568;25.814;2023-04-27T07:20:39;100377.63;;;6.55;100.00
59650;BME280;46162;57.568;25.814;2023-04-27T07:23:08;100379.97;;;6.69;100.00
59650;BME280;46162;57.568;25.814;2023-04-27T07:25:37;100369.91;;;6.61;100.00
59650;BME280;46162;57.568;25.814;2023-04-27T07:28:07;100377.69;;;6.95;100.00
59650;BME280;46162;57.568;25.814;2023-04-27T07:30:36;100374.50;;;7.21;100.00
59650;BME280;46162;57.568;25.814;2023-04-27T07:33:05;100382.69;;;7.19;100.00
59650;BME280;46162;57.568;25.814;2023-04-27T07:35:33;100379.81;;;7.01;100.00
59650;BME280;46162;57.568;25.814;2023-04-27T07:38:03;100392.75;;;6.86;100.00
59650;BME280;46162;57.568;25.814;2023-04-27T07:40:33;100389.78;;;6.89;100.00
59650;BME280;46162;57.568;25.814;2023-04-27T07:43:02;100388.66;;;6.92;100.00
59650;BME280;46162;57.568;25.814;2023-04-27T07:45:33;100388.50;;;6.84;100.00
59650;BME280;46162;57.568;25.814;2023-04-27T07:48:04;100388.66;;;6.92;100.00
59650;BME280;46162;57.568;25.814;2023-04-27T07:50:33;100385.31;;;6.90;100.00
59650;BME280;46162;57.568;25.814;2023-04-27T07:53:02;100387.13;;;6.89;100.00
59650;BME280;46162;57.568;25.814;2023-04-27T07:55:30;100388.00;;;6.90;100.00
59650;BME280;46162;57.568;25.814;2023-04-27T07:57:59;100384.66;;;7.07;100.00
59650;BME280;46162;57.568;25.814;2023-04-27T08:00:28;100396.34;;;7.06;100.00
59650;BME280;46162;57.568;25.814;2023-04-27T08:02:58;100393.41;;;7.09;100.00
59650;BME280;46162;57.568;25.814;2023-04-27T08:05:27;100401.66;;;7.27;100.00
59650;BME280;46162;57.568;25.814;2023-04-27T08:07:57;100404.59;;;7.15;100.00
59650;BME280;46162;57.568;25.814;2023-04-27T08:10:26;100407.28;;;7.15;100.00
59650;BME280;46162;57.568;25.814;2023-04-27T08:12:55;100411.38;;;7.19;100.00
59650;BME280;46162;57.568;25.814;2023-04-27T08:15:23;100411.13;;;7.31;100.00
59650;BME280;46162;57.568;25.814;2023-04-27T08:17:52;100415.19;;;7.16;100.00
59650;BME280;46162;57.568;25.814;2023-04-27T08:20:22;100414.94;;;7.29;100.00
59650;BME280;46162;57.568;25.814;2023-04-27T08:22:51;100409.75;;;7.37;100.00
59650;BME280;46162;57.568;25.814;2023-04-27T08:25:20;100410.59;;;7.47;100.00
59650;BME280;46162;57.568;25.814;2023-04-27T08:27:48;100405.69;;;7.62;100.00
59650;BME280;46162;57.568;25.814;2023-04-27T08:30:17;100409.94;;;7.84;100.00
59650;BME280;46162;57.568;25.814;2023-04-27T08:32:45;100415.16;;;7.76;100.00
59650;BME280;46162;57.568;25.814;2023-04-27T08:35:15;100419.97;;;7.82;100.00
59650;BME280;46162;57.568;25.814;2023-04-27T08:37:45;100426.91;;;7.85;100.00
59650;BME280;46162;57.568;25.814;2023-04-27T08:40:14;100435.97;;;7.74;100.00
59650;BME280;46162;57.568;25.814;2023-04-27T08:42:55;100427.19;;;7.82;100.00
59650;BME280;46162;57.568;25.814;2023-04-27T08:45:25;100426.50;;;7.89;100.00
59650;BME280;46162;57.568;25.814;2023-04-27T08:47:53;100426.34;;;7.91;100.00
59650;BME280;46162;57.568;25.814;2023-04-27T08:50:23;100424.06;;;7.96;100.00
59650;BME280;46162;57.568;25.814;2023-04-27T08:52:53;100432.59;;;7.91;100.00
59650;BME280;46162;57.568;25.814;2023-04-27T08:55:21;100427.75;;;7.75;100.00
59650;BME280;46162;57.568;25.814;2023-04-27T08:57:54;100427.44;;;7.69;100.00
59650;BME280;46162;57.568;25.814;2023-04-27T09:00:24;100426.59;;;7.68;100.00
59650;BME280;46162;57.568;25.814;2023-04-27T09:02:53;100432.28;;;7.75;100.00
59650;BME280;46162;57.568;25.814;2023-04-27T09:05:22;100429.44;;;7.67;100.00
59650;BME280;46162;57.568;25.814;2023-04-27T09:07:59;100434.50;;;7.50;100.00
59650;BME280;46162;57.568;25.814;2023-04-27T09:10:43;100431.81;;;7.50;100.00
59650;BME280;46162;57.568;25.814;2023-04-27T09:13:12;100440.16;;;7.47;100.00
59650;BME280;46162;57.568;25.814;2023-04-27T09:15:42;100445.19;;;7.31;100.00
59650;BME280;46162;57.568;25.814;2023-04-27T09:18:16;100451.22;;;7.14;100.00
59650;BME280;46162;57.568;25.814;2023-04-27T09:20:46;100451.88;;;7.06;100.00
59650;BME280;46162;57.568;25.814;2023-04-27T09:23:29;100452.94;;;7.15;100.00
59650;BME280;46162;57.568;25.814;2023-04-27T09:26:00;100452.94;;;7.15;100.00
59650;BME280;46162;57.568;25.814;2023-04-27T09:28:30;100452.50;;;7.19;100.00
59650;BME280;46162;57.568;25.814;2023-04-27T09:31:01;100462.25;;;7.20;100.00
59650;BME280;46162;57.568;25.814;2023-04-27T09:33:31;100461.00;;;7.24;100.00
59650;BME280;46162;57.568;25.814;2023-04-27T09:36:02;100451.56;;;7.30;100.00
59650;BME280;46162;57.568;25.814;2023-04-27T09:38:33;100451.72;;;7.38;100.00
59650;BME280;46162;57.568;25.814;2023-04-27T09:41:02;100449.78;;;7.50;100.00
59650;BME280;46162;57.568;25.814;2023-04-27T09:43:30;100453.75;;;7.65;100.00
59650;BME280;46162;57.568;25.814;2023-04-27T09:45:59;100453.91;;;7.73;100.00
59650;BME280;46162;57.568;25.814;2023-04-27T09:48:28;100450.38;;;7.73;100.00
59650;BME280;46162;57.568;25.814;2023-04-27T09:50:56;100451.38;;;7.72;100.00
59650;BME280;46162;57.568;25.814;2023-04-27T09:53:27;100451.22;;;7.73;100.00
59650;BME280;46162;57.568;25.814;2023-04-27T09:56:19;100462.56;;;7.77;100.00
59650;BME280;46162;57.568;25.814;2023-04-27T09:59:04;100450.66;;;7.70;100.00
59650;BME280;46162;57.568;25.814;2023-04-27T10:01:41;100456.84;;;7.61;100.00
59650;BME280;46162;57.568;25.814;2023-04-27T10:04:30;100471.00;;;7.63;100.00
59650;BME280;46162;57.568;25.814;2023-04-27T10:07:02;100466.03;;;7.58;100.00
59650;BME280;46162;57.568;25.814;2023-04-27T10:09:36;100457.84;;;7.50;100.00
59650;BME280;46162;57.568;25.814;2023-04-27T10:12:19;100463.78;;;7.53;100.00
59650;BME280;46162;57.568;25.814;2023-04-27T10:14:52;100464.47;;;7.56;100.00
59650;BME280;46162;57.568;25.814;2023-04-27T10:17:29;100466.19;;;7.66;100.00
59650;BME280;46162;57.568;25.814;2023-04-27T10:19:59;100469.88;;;7.65;100.00
59650;BME280;46162;57.568;25.814;2023-04-27T10:22:42;100460.13;;;7.64;100.00
59650;BME280;46162;57.568;25.814;2023-04-27T10:25:13;100467.59;;;7.61;100.00
59650;BME280;46162;57.568;25.814;2023-04-27T10:27:47;100466.31;;;7.55;100.00
59650;BME280;46162;57.568;25.814;2023-04-27T10:30:17;100469.56;;;7.49;100.00
59650;BME280;46162;57.568;25.814;2023-04-27T10:32:50;100473.06;;;7.40;100.00
59650;BME280;46162;57.568;25.814;2023-04-27T10:35:20;100479.78;;;7.24;100.00
59650;BME280;46162;57.568;25.814;2023-04-27T10:37:49;100475.38;;;7.14;100.00
59650;BME280;46162;57.568;25.814;2023-04-27T10:40:19;100476.78;;;7.08;100.00
59650;BME280;46162;57.568;25.814;2023-04-27T10:42:49;100473.53;;;7.14;100.00
59650;BME280;46162;57.568;25.814;2023-04-27T10:45:33;100478.50;;;7.19;100.00
59650;BME280;46162;57.568;25.814;2023-04-27T10:48:01;100474.28;;;7.26;100.00
59650;BME280;46162;57.568;25.814;2023-04-27T10:50:30;100481.13;;;7.40;100.00
59650;BME280;46162;57.568;25.814;2023-04-27T10:53:00;100472.69;;;7.64;100.00
59650;BME280;46162;57.568;25.814;2023-04-27T10:55:30;100478.53;;;7.88;100.00
59650;BME280;46162;57.568;25.814;2023-04-27T10:58:01;100475.44;;;8.03;100.00
59650;BME280;46162;57.568;25.814;2023-04-27T11:00:32;100470.66;;;8.06;100.00
59650;BME280;46162;57.568;25.814;2023-04-27T11:03:13;100477.41;;;8.01;100.00
59650;BME280;46162;57.568;25.814;2023-04-27T11:05:44;100482.78;;;8.01;100.00
59650;BME280;46162;57.568;25.814;2023-04-27T11:08:15;100490.84;;;7.81;100.00
59650;BME280;46162;57.568;25.814;2023-04-27T11:10:45;100497.91;;;7.82;100.00
59650;BME280;46162;57.568;25.814;2023-04-27T11:13:19;100494.22;;;7.83;100.00
59650;BME280;46162;57.568;25.814;2023-04-27T11:15:50;100507.25;;;7.78;100.00
59650;BME280;46162;57.568;25.814;2023-04-27T11:18:20;100500.47;;;7.74;100.00
59650;BME280;46162;57.568;25.814;2023-04-27T11:20:50;100493.09;;;7.76;100.00
59650;BME280;46162;57.568;25.814;2023-04-27T11:23:23;100497.63;;;7.85;100.00
59650;BME280;46162;57.568;25.814;2023-04-27T11:25:52;100498.94;;;8.01;100.00
59650;BME280;46162;57.568;25.814;2023-04-27T11:28:23;100506.44;;;8.65;100.00
59650;BME280;46162;57.568;25.814;2023-04-27T11:30:55;100506.50;;;9.02;100.00
59650;BME280;46162;57.568;25.814;2023-04-27T11:33:24;100507.19;;;9.14;100.00
59650;BME280;46162;57.568;25.814;2023-04-27T11:35:53;100520.78;;;9.22;100.00
59650;BME280;46162;57.568;25.814;2023-04-27T11:38:22;100519.31;;;8.91;100.00
59650;BME280;46162;57.568;25.814;2023-04-27T11:40:59;100518.06;;;8.75;100.00
59650;BME280;46162;57.568;25.814;2023-04-27T11:43:29;100524.03;;;8.59;100.00
59650;BME280;46162;57.568;25.814;2023-04-27T11:46:01;100527.31;;;8.44;100.00
59650;BME280;46162;57.568;25.814;2023-04-27T11:48:30;100524.63;;;8.53;100.00
59650;BME280;46162;57.568;25.814;2023-04-27T11:50:59;100528.41;;;8.31;100.00
59650;BME280;46162;57.568;25.814;2023-04-27T11:53:28;100531.53;;;8.36;100.00
59650;BME280;46162;57.568;25.814;2023-04-27T11:55:59;100538.63;;;8.57;100.00
59650;BME280;46162;57.568;25.814;2023-04-27T11:58:32;100532.22;;;8.58;100.00
59650;BME280;46162;57.568;25.814;2023-04-27T12:01:01;100531.13;;;8.60;100.00
59650;BME280;46162;57.568;25.814;2023-04-27T12:03:30;100540.84;;;8.91;100.00
59650;BME280;46162;57.568;25.814;2023-04-27T12:06:00;100543.53;;;8.91;100.00
59650;BME280;46162;57.568;25.814;2023-04-27T12:08:31;100551.78;;;8.70;100.00
59650;BME280;46162;57.568;25.814;2023-04-27T12:11:00;100551.53;;;8.53;100.00
59650;BME280;46162;57.568;25.814;2023-04-27T12:13:30;100545.25;;;8.53;100.00
59650;BME280;46162;57.568;25.814;2023-04-27T12:15:58;100551.09;;;8.48;100.00
59650;BME280;46162;57.568;25.814;2023-04-27T12:18:27;100544.81;;;8.38;100.00
59650;BME280;46162;57.568;25.814;2023-04-27T12:20:56;100546.97;;;8.44;100.00
59650;BME280;46162;57.568;25.814;2023-04-27T12:23:29;100545.25;;;8.43;100.00
59650;BME280;46162;57.568;25.814;2023-04-27T12:25:57;100549.25;;;8.49;100.00
59650;BME280;46162;57.568;25.814;2023-04-27T12:28:26;100544.59;;;8.41;100.00
59650;BME280;46162;57.568;25.814;2023-04-27T12:30:56;100550.06;;;8.30;100.00
59650;BME280;46162;57.568;25.814;2023-04-27T12:33:25;100558.94;;;8.21;100.00
59650;BME280;46162;57.568;25.814;2023-04-27T12:35:53;100557.13;;;8.11;100.00
59650;BME280;46162;57.568;25.814;2023-04-27T12:38:22;100558.25;;;8.09;100.00
59650;BME280;46162;57.568;25.814;2023-04-27T12:40:50;100561.47;;;8.03;100.00
59650;BME280;46162;57.568;25.814;2023-04-27T12:43:19;100563.84;;;7.96;100.00
59650;BME280;46162;57.568;25.814;2023-04-27T12:45:48;100570.78;;;7.98;100.00
59650;BME280;46162;57.568;25.814;2023-04-27T12:48:18;100571.94;;;7.96;100.00
59650;BME280;46162;57.568;25.814;2023-04-27T12:50:48;100565.00;;;7.93;100.00
59650;BME280;46162;57.568;25.814;2023-04-27T12:53:17;100574.50;;;8.07;100.00
59650;BME280;46162;57.568;25.814;2023-04-27T12:55:46;100571.84;;;8.27;100.00